Con. actuales
Clear
Conditions



PressiĆ³n:
1017.92 (hPa) - 30.06 (inHG)
Visibilidad:

5.0 (km) - 3.1 (miles)
Base de Nubes

Despejado (Mts) - Despejado (Feets)
   Temperatura
10  °C
Temperatura
10  °C
100  %
 Humedad
   Velocidad del Viento
10  km/h
5  kts
6  mph
2.7  m/s
   Wind Direction
N
45°
E
90°
135°
S
180°
225°
O
270°
315°
 100°

Del   Easte
   Airport Data
SAEZ
Ministro Pistarini International Airport
Metar :SAEZ 250700Z 10005KT 5000 MIFG BR NSC 10/10 Q1018 NOSIG RMK PP000
Sun 25th September 04:00 am
   Raw Metar Info
Raw METAR is the most common format in the world for the transmission of observational weather data. It is highly standardized through the International Civil Aviation Organization (ICAO), which allows it to be understood throughout most of the world.
   API Info
Data Provided by
https://www.checkwx.com/weather/SAEZ

Aviation Weather providing METAR, TAF, AIRMET, SIGMET and OUTLOOK Weather Reports
   © Info
CSS/SVG/PHP scripts were developed by weather34.com for use in the weather34 template © 2015-2022

Guide Info provided by Metar-Wikipedia